Terminal Aerodrome Forecast
Issued by NWS

Home | Current Version | Previous Version | Text Only | Print | Product List | Glossary On
Versions: 1 2 3 4 5 6 7 8 9 10 11 12 13 14 15 16 17 18 19 20 21
766
FTUS45 KFGZ 301140
TAFSEZ
TAF
KSEZ 301140Z 3012/0112 06006KT P6SM BKN060 OVC080
     FM301800 18006KT P6SM BKN050 OVC110
      TEMPO 3019/3023 -SHRA OVC040
     FM010000 08008KT P6SM -SHRA BKN050 OVC070=

USA.gov is the U.S. government's official web portal to all federal, state and local government web resources and services.